Time;durP1;ratioP1;P1;durP2;ratioP2;P2;SDS_P1;SDS_P2;PMS_P1;PMS_P2;Temp;Humidity;BMP_temperature;BMP_pressure;BME280_temperature;BME280_humidity;BME280_pressure;Samples;Min_cycle;Max_cycle;Signal;HPM_P1;HPM_P2
2022/12/06 00:00:02;;;;;;;7.78;1.80;;;7.00;83.80;;;;;;5092421;28;20370;-69
2022/12/06 00:02:39;;;;;;;6.53;1.52;;;7.10;83.80;;;;;;5109142;28;20048;-69
2022/12/06 00:05:07;;;;;;;5.82;1.42;;;7.10;83.80;;;;;;5111245;28;20106;-69
2022/12/06 00:07:35;;;;;;;4.90;1.70;;;7.10;83.70;;;;;;5075657;28;20052;-70
2022/12/06 00:10:02;;;;;;;5.77;1.60;;;7.10;83.70;;;;;;5092116;28;20095;-69
2022/12/06 00:12:29;;;;;;;4.65;1.38;;;7.10;83.70;;;;;;5092222;28;20247;-70
2022/12/06 00:14:57;;;;;;;6.85;1.75;;;7.10;83.70;;;;;;5091888;28;20044;-70
2022/12/06 00:17:25;;;;;;;5.15;1.60;;;7.10;83.70;;;;;;5091983;28;20060;-70
2022/12/06 00:19:53;;;;;;;5.20;1.77;;;7.10;83.70;;;;;;5105357;28;20158;-69
2022/12/06 00:22:20;;;;;;;4.93;2.10;;;7.10;83.70;;;;;;5089391;28;20405;-69
2022/12/06 00:24:47;;;;;;;6.85;2.17;;;7.20;83.70;;;;;;5088940;28;20265;-70
2022/12/06 00:27:15;;;;;;;7.20;2.00;;;7.10;83.60;;;;;;5103877;28;20044;-70
2022/12/06 00:29:42;;;;;;;6.68;1.80;;;7.00;83.60;;;;;;5091904;28;20143;-70
2022/12/06 00:32:09;;;;;;;7.22;1.90;;;7.10;83.70;;;;;;5092019;28;20051;-70
2022/12/06 00:34:39;;;;;;;6.60;1.40;;;7.10;83.60;;;;;;5110231;28;20083;-69
2022/12/06 00:37:06;;;;;;;5.60;1.55;;;7.10;83.60;;;;;;5071639;28;20270;-69
2022/12/06 00:39:34;;;;;;;7.10;1.98;;;7.10;83.60;;;;;;5089936;28;20105;-69
2022/12/06 00:42:01;;;;;;;5.53;1.83;;;7.20;83.50;;;;;;5071888;28;20938;-70
2022/12/06 00:44:29;;;;;;;5.57;1.88;;;7.20;83.40;;;;;;5101759;28;20058;-69
2022/12/06 00:46:56;;;;;;;7.20;2.00;;;7.20;83.40;;;;;;5074811;28;20538;-70
2022/12/06 00:49:24;;;;;;;5.40;1.38;;;7.20;83.20;;;;;;5110162;28;20378;-69
2022/12/06 00:51:52;;;;;;;7.65;1.80;;;7.20;83.20;;;;;;5089166;28;20105;-70
2022/12/06 00:54:20;;;;;;;4.80;1.75;;;7.20;83.10;;;;;;5088438;28;20048;-70
2022/12/06 00:56:47;;;;;;;8.70;1.85;;;7.20;83.00;;;;;;5089758;28;20049;-70
2022/12/06 00:59:14;;;;;;;5.53;1.80;;;7.20;83.00;;;;;;5089396;28;20048;-70
2022/12/06 01:01:42;;;;;;;7.30;2.10;;;7.10;82.90;;;;;;5091334;28;20370;-70
2022/12/06 01:04:09;;;;;;;6.28;1.90;;;7.00;83.00;;;;;;5109976;28;20159;-70
2022/12/06 01:06:37;;;;;;;5.78;1.63;;;7.00;83.00;;;;;;5091340;28;20558;-69
2022/12/06 01:09:08;;;;;;;5.15;1.70;;;7.00;83.10;;;;;;5089581;28;20136;-70
2022/12/06 01:11:35;;;;;;;5.73;1.80;;;7.00;83.10;;;;;;5091259;28;20071;-70
2022/12/06 01:14:03;;;;;;;6.18;1.63;;;7.00;83.20;;;;;;5110044;28;20854;-70
2022/12/06 01:16:31;;;;;;;6.47;1.80;;;7.00;83.10;;;;;;5109869;28;20510;-69
2022/12/06 01:19:00;;;;;;;6.07;1.63;;;6.90;83.10;;;;;;5090999;28;20055;-70
2022/12/06 01:21:28;;;;;;;7.28;1.77;;;6.90;83.10;;;;;;5108222;28;20051;-69
2022/12/06 01:23:56;;;;;;;5.53;1.60;;;6.90;83.20;;;;;;5107342;28;20048;-69
2022/12/06 01:26:27;;;;;;;8.73;1.40;;;6.90;83.30;;;;;;5090147;28;20418;-69
2022/12/06 01:28:54;;;;;;;5.57;1.33;;;6.80;83.40;;;;;;5109210;28;20048;-70
2022/12/06 01:31:21;;;;;;;7.40;1.50;;;6.80;83.40;;;;;;5091165;28;20054;-70
2022/12/06 01:33:48;;;;;;;7.53;1.25;;;6.80;83.40;;;;;;5091323;28;20056;-70
2022/12/06 01:36:17;;;;;;;6.43;1.40;;;6.80;83.40;;;;;;5094643;28;20047;-70
2022/12/06 01:38:44;;;;;;;6.55;1.50;;;6.80;83.40;;;;;;5091243;28;20263;-70
2022/12/06 01:41:11;;;;;;;5.88;1.60;;;6.80;83.40;;;;;;5094110;28;20498;-70
2022/12/06 01:43:42;;;;;;;5.53;1.35;;;6.80;83.30;;;;;;5110315;28;20048;-70
2022/12/06 01:46:22;;;;;;;6.80;1.90;;;6.90;83.30;;;;;;5094519;28;20051;-69
2022/12/06 01:48:52;;;;;;;4.93;1.53;;;6.90;83.30;;;;;;5094061;28;20044;-69
2022/12/06 01:51:20;;;;;;;4.78;1.50;;;6.90;83.30;;;;;;5113072;28;20764;-70
2022/12/06 01:53:50;;;;;;;4.57;1.40;;;6.90;83.20;;;;;;5112822;28;20504;-69
2022/12/06 01:56:18;;;;;;;5.72;1.23;;;6.90;83.20;;;;;;5094287;28;20568;-69
2022/12/06 01:58:49;;;;;;;4.70;1.13;;;6.90;83.20;;;;;;5112675;28;20048;-69
2022/12/06 02:01:16;;;;;;;4.53;0.90;;;6.90;83.10;;;;;;5111037;28;20139;-69
2022/12/06 02:03:46;;;;;;;3.95;0.70;;;6.90;83.10;;;;;;5113131;28;20254;-70
2022/12/06 02:06:13;;;;;;;3.00;0.45;;;6.90;83.20;;;;;;5094492;28;20048;-69
2022/12/06 02:08:40;;;;;;;3.15;0.60;;;6.90;83.20;;;;;;5094258;28;20044;-70
2022/12/06 02:11:08;;;;;;;3.45;0.70;;;6.90;83.10;;;;;;5094177;28;20565;-70
2022/12/06 02:13:37;;;;;;;3.97;0.90;;;6.90;83.10;;;;;;5093344;28;20490;-69
2022/12/06 02:16:17;;;;;;;3.13;0.75;;;6.90;83.10;;;;;;5094390;28;20247;-69
2022/12/06 02:18:48;;;;;;;3.83;0.77;;;6.90;83.00;;;;;;5092631;28;20741;-69
2022/12/06 02:21:22;;;;;;;5.60;0.75;;;6.90;83.00;;;;;;5093964;28;20048;-69
2022/12/06 02:24:20;;;;;;;3.72;0.70;;;6.90;83.00;;;;;;5077001;28;20048;-70
2022/12/06 02:26:49;;;;;;;2.90;0.80;;;6.90;82.90;;;;;;5112180;28;20719;-70
2022/12/06 02:29:40;;;;;;;3.55;0.70;;;6.90;82.90;;;;;;5093501;28;20346;-70
2022/12/06 02:32:11;;;;;;;4.30;0.80;;;6.90;82.80;;;;;;5093709;28;20094;-69
2022/12/06 02:34:44;;;;;;;4.13;0.70;;;6.90;82.80;;;;;;5111637;28;20098;-70
2022/12/06 02:37:14;;;;;;;3.92;0.80;;;6.90;82.70;;;;;;5093447;28;20477;-69
2022/12/06 02:39:48;;;;;;;4.03;0.63;;;6.90;82.80;;;;;;5093712;28;20149;-69
2022/12/06 02:42:19;;;;;;;4.13;0.90;;;6.90;82.70;;;;;;5112102;28;20332;-69
2022/12/06 02:44:49;;;;;;;4.28;0.80;;;6.80;82.60;;;;;;5092499;28;20072;-69
2022/12/06 02:47:22;;;;;;;3.30;0.90;;;6.80;82.70;;;;;;5090147;28;20114;-70
2022/12/06 02:49:53;;;;;;;4.07;1.00;;;6.80;82.80;;;;;;5089924;28;20128;-70
2022/12/06 02:52:24;;;;;;;4.73;1.10;;;6.80;82.80;;;;;;5090954;28;20052;-70
2022/12/06 02:54:54;;;;;;;4.68;1.10;;;6.80;82.70;;;;;;5112185;28;20741;-70
2022/12/06 02:57:33;;;;;;;5.35;1.10;;;6.80;82.70;;;;;;5111512;28;20105;-69
2022/12/06 03:00:01;;;;;;;4.38;1.33;;;6.80;82.80;;;;;;5093001;28;21088;-69
2022/12/06 03:02:31;;;;;;;5.85;0.98;;;6.80;82.80;;;;;;5093196;28;20063;-70
2022/12/06 03:05:09;;;;;;;4.57;1.00;;;6.80;82.80;;;;;;5093200;28;20083;-69
2022/12/06 03:07:41;;;;;;;4.55;1.20;;;6.80;82.80;;;;;;5093101;28;20247;-70
2022/12/06 03:10:37;;;;;;;6.43;1.35;;;6.80;82.80;;;;;;5083037;28;20099;-69
2022/12/06 03:13:16;;;;;;;6.53;1.50;;;6.80;82.70;;;;;;5090909;28;20057;-69
2022/12/06 03:15:49;;;;;;;6.28;1.48;;;6.70;82.80;;;;;;5089801;28;20134;-69
2022/12/06 03:18:28;;;;;;;4.40;1.53;;;6.70;82.70;;;;;;5089201;28;20106;-70
2022/12/06 03:21:00;;;;;;;7.93;1.70;;;6.70;82.80;;;;;;5086814;28;20275;-69
2022/12/06 03:23:32;;;;;;;5.18;1.40;;;6.70;82.80;;;;;;5091556;28;20498;-70
2022/12/06 03:26:02;;;;;;;5.25;1.55;;;6.60;82.80;;;;;;5109986;28;20056;-70
2022/12/06 03:28:30;;;;;;;5.97;1.70;;;6.50;82.90;;;;;;5107490;28;20086;-69
2022/12/06 03:31:01;;;;;;;4.90;1.40;;;6.50;83.00;;;;;;5092040;28;20048;-69
2022/12/06 03:33:32;;;;;;;6.00;1.27;;;6.50;83.10;;;;;;5093179;28;20820;-70
2022/12/06 03:35:59;;;;;;;4.72;1.30;;;6.50;83.20;;;;;;5079858;28;20177;-69
2022/12/06 03:38:34;;;;;;;5.07;1.50;;;6.50;83.20;;;;;;5075882;28;20052;-69
2022/12/06 03:41:05;;;;;;;5.75;1.33;;;6.50;83.20;;;;;;5092398;28;20059;-69
2022/12/06 03:43:33;;;;;;;5.03;1.40;;;6.40;83.30;;;;;;5110371;28;20055;-70
2022/12/06 03:46:06;;;;;;;4.18;1.30;;;6.40;83.40;;;;;;5092417;28;20320;-69
2022/12/06 03:48:38;;;;;;;3.83;1.30;;;6.40;83.40;;;;;;5092417;28;20879;-70
2022/12/06 03:51:09;;;;;;;3.72;1.25;;;6.40;83.30;;;;;;5092642;28;20131;-69
2022/12/06 03:53:46;;;;;;;5.22;1.25;;;6.40;83.30;;;;;;5110957;28;20044;-69
2022/12/06 03:56:14;;;;;;;4.40;1.33;;;6.40;83.30;;;;;;5092643;28;20052;-70
2022/12/06 03:58:41;;;;;;;6.45;1.40;;;6.40;83.20;;;;;;5092609;28;20254;-69
2022/12/06 04:01:08;;;;;;;4.13;1.10;;;6.50;83.20;;;;;;5087114;28;20046;-70
2022/12/06 04:03:36;;;;;;;5.93;1.30;;;6.40;83.30;;;;;;5089621;28;20056;-69
2022/12/06 04:06:04;;;;;;;6.30;1.20;;;6.40;83.30;;;;;;5089106;28;20172;-70
2022/12/06 04:08:31;;;;;;;3.73;1.20;;;6.40;83.30;;;;;;5088927;28;20041;-69
2022/12/06 04:10:58;;;;;;;4.07;1.15;;;6.40;83.20;;;;;;5091807;28;20289;-69
2022/12/06 04:13:26;;;;;;;3.90;1.10;;;6.40;83.20;;;;;;5110566;28;20086;-69
2022/12/06 04:15:55;;;;;;;4.28;1.20;;;6.40;83.20;;;;;;5110664;28;20552;-69
2022/12/06 04:18:22;;;;;;;5.10;1.00;;;6.40;83.20;;;;;;5087083;28;20057;-70
2022/12/06 04:23:45;;;;;;;3.58;0.90;;;6.30;83.20;;;;;;5088710;28;20256;-69
2022/12/06 04:26:14;;;;;;;4.20;0.88;;;6.30;83.30;;;;;;5090209;28;20154;-70
2022/12/06 04:39:42;;;;;;;3.55;1.00;;;6.10;83.30;;;;;;5091383;28;20041;-69
2022/12/06 04:44:54;;;;;;;3.42;0.70;;;6.00;83.40;;;;;;5091777;28;20048;-69
2022/12/06 04:47:21;;;;;;;5.07;1.13;;;6.00;83.40;;;;;;5110127;28;20056;-69
2022/12/06 04:49:49;;;;;;;3.80;1.13;;;6.00;83.50;;;;;;5110072;28;20342;-70
2022/12/06 04:52:17;;;;;;;4.70;1.20;;;5.90;83.60;;;;;;5091909;28;20399;-70
2022/12/06 04:54:45;;;;;;;4.63;0.95;;;5.90;83.70;;;;;;5108304;28;20161;-70
2022/12/06 04:57:15;;;;;;;5.05;0.95;;;5.90;83.70;;;;;;5091863;28;20177;-69
2022/12/06 04:59:44;;;;;;;3.70;0.90;;;5.90;83.70;;;;;;5110011;28;20155;-69
2022/12/06 05:02:13;;;;;;;4.50;0.98;;;5.80;83.70;;;;;;5091473;28;20700;-70
2022/12/06 05:04:41;;;;;;;4.32;0.82;;;5.80;83.70;;;;;;5109970;28;20258;-69
2022/12/06 05:07:10;;;;;;;4.03;0.80;;;5.80;83.70;;;;;;5091252;28;20047;-69
2022/12/06 05:09:39;;;;;;;5.63;1.00;;;5.80;83.70;;;;;;5071924;28;20540;-70
2022/12/06 05:12:06;;;;;;;5.30;1.10;;;5.80;83.70;;;;;;5109119;28;20130;-70
2022/12/06 05:14:33;;;;;;;4.78;0.98;;;5.80;83.70;;;;;;5112320;28;20620;-69
2022/12/06 05:17:01;;;;;;;4.22;1.05;;;5.80;83.70;;;;;;5095568;28;20755;-69
2022/12/06 05:19:29;;;;;;;4.05;0.80;;;5.70;83.70;;;;;;5094667;28;20060;-70
2022/12/06 05:21:56;;;;;;;4.47;0.80;;;5.80;83.80;;;;;;5094959;28;20145;-69
2022/12/06 05:24:23;;;;;;;3.00;0.70;;;5.70;83.60;;;;;;5113528;28;20199;-69
2022/12/06 05:26:51;;;;;;;3.42;0.65;;;5.70;83.60;;;;;;5111980;28;20320;-69
2022/12/06 05:29:18;;;;;;;4.50;0.80;;;5.60;83.70;;;;;;5094534;28;20052;-69
2022/12/06 05:31:45;;;;;;;3.80;0.80;;;5.60;83.80;;;;;;5094758;28;20040;-69
2022/12/06 05:34:12;;;;;;;4.63;0.90;;;5.50;83.80;;;;;;5094847;28;20048;-70
2022/12/06 05:36:39;;;;;;;4.50;0.90;;;5.50;84.10;;;;;;5092804;28;20044;-69
2022/12/06 05:39:06;;;;;;;4.38;1.00;;;5.50;84.20;;;;;;5112825;28;20274;-70
2022/12/06 05:41:33;;;;;;;4.60;1.02;;;5.50;84.30;;;;;;5113094;28;20052;-69
2022/12/06 05:44:02;;;;;;;4.38;0.80;;;5.50;84.40;;;;;;5111427;28;20056;-69
2022/12/06 05:46:29;;;;;;;5.00;0.90;;;5.50;84.40;;;;;;5094236;28;20131;-69
2022/12/06 05:48:56;;;;;;;3.60;1.00;;;5.50;84.40;;;;;;5112596;28;20133;-69
2022/12/06 05:51:23;;;;;;;3.58;0.88;;;5.40;84.40;;;;;;5113102;28;20263;-70
2022/12/06 05:53:50;;;;;;;4.45;1.15;;;5.40;84.40;;;;;;5112809;28;20542;-69
2022/12/06 05:56:17;;;;;;;3.72;0.80;;;5.30;84.70;;;;;;5077507;28;20044;-69
2022/12/06 05:58:44;;;;;;;2.80;0.70;;;5.30;84.70;;;;;;5094200;28;20930;-70
2022/12/06 06:01:14;;;;;;;6.10;0.90;;;5.30;84.80;;;;;;5092958;28;20112;-70
2022/12/06 06:03:41;;;;;;;4.10;0.77;;;5.20;84.90;;;;;;5113084;28;20246;-70
2022/12/06 06:06:09;;;;;;;4.30;1.00;;;5.10;84.90;;;;;;5094547;28;20059;-69
2022/12/06 06:08:36;;;;;;;4.88;0.90;;;5.10;84.90;;;;;;5112692;28;20141;-69
2022/12/06 06:11:03;;;;;;;3.35;0.80;;;5.10;85.00;;;;;;5111988;28;20051;-70
2022/12/06 06:13:30;;;;;;;3.07;0.87;;;5.00;85.30;;;;;;5093930;28;20048;-70
2022/12/06 06:15:57;;;;;;;4.03;1.05;;;5.00;85.50;;;;;;5112906;28;20361;-69
2022/12/06 06:18:26;;;;;;;3.33;0.80;;;5.00;85.60;;;;;;5112287;28;20056;-69
2022/12/06 06:20:56;;;;;;;4.13;1.10;;;5.00;85.60;;;;;;5110325;28;20538;-69
2022/12/06 06:23:23;;;;;;;3.88;0.90;;;5.00;85.70;;;;;;5093991;28;20044;-70
2022/12/06 06:25:50;;;;;;;4.37;1.23;;;4.90;85.70;;;;;;5093308;28;20040;-69
2022/12/06 06:28:18;;;;;;;5.03;1.20;;;4.90;85.60;;;;;;5093811;28;20313;-69
2022/12/06 06:30:46;;;;;;;5.38;1.08;;;4.90;85.70;;;;;;5111968;28;20048;-69
2022/12/06 06:33:13;;;;;;;4.05;1.08;;;4.90;85.60;;;;;;5112755;28;20547;-69
2022/12/06 06:35:42;;;;;;;4.25;1.05;;;4.90;85.70;;;;;;5093657;28;20051;-69
2022/12/06 06:38:09;;;;;;;3.87;1.20;;;4.80;85.50;;;;;;5091081;28;20044;-70
2022/12/06 06:40:36;;;;;;;5.72;1.10;;;4.80;85.50;;;;;;5111921;28;20289;-69
2022/12/06 06:43:17;;;;;;;4.00;1.20;;;4.80;85.50;;;;;;5093927;28;20132;-69
2022/12/06 06:45:45;;;;;;;3.60;1.17;;;4.70;85.60;;;;;;5093832;28;20055;-69
2022/12/06 06:48:13;;;;;;;3.85;1.13;;;4.70;85.70;;;;;;5093488;28;20059;-69
2022/12/06 06:50:41;;;;;;;3.57;1.20;;;4.70;85.70;;;;;;5093305;28;20498;-69
2022/12/06 06:53:08;;;;;;;3.47;1.10;;;4.70;85.50;;;;;;5093450;28;20268;-69
2022/12/06 06:55:36;;;;;;;5.15;1.40;;;4.70;85.60;;;;;;5078353;28;20055;-69
2022/12/06 06:58:04;;;;;;;3.95;1.25;;;4.70;85.50;;;;;;5073291;28;20051;-69
2022/12/06 07:00:31;;;;;;;6.97;1.52;;;4.60;85.70;;;;;;5072805;28;20044;-69
2022/12/06 07:02:58;;;;;;;6.60;1.30;;;4.50;85.70;;;;;;5092306;28;20057;-69
2022/12/06 07:05:25;;;;;;;5.03;1.35;;;4.50;85.70;;;;;;5089801;28;20393;-69
2022/12/06 07:07:56;;;;;;;4.53;1.52;;;4.50;85.90;;;;;;5110178;28;20260;-69
2022/12/06 07:10:24;;;;;;;6.60;2.40;;;4.40;85.90;;;;;;5088750;28;20510;-70
2022/12/06 07:12:52;;;;;;;6.13;1.90;;;4.40;85.80;;;;;;5089391;28;20051;-70
2022/12/06 07:15:20;;;;;;;5.57;1.80;;;4.40;85.90;;;;;;5090747;28;20044;-69
2022/12/06 07:17:47;;;;;;;7.13;2.10;;;4.30;85.90;;;;;;5107604;27;20670;-69
2022/12/06 07:20:14;;;;;;;5.75;2.08;;;4.30;86.00;;;;;;5098014;27;20541;-69
2022/12/06 07:22:41;;;;;;;5.25;2.13;;;4.30;86.10;;;;;;5108199;27;20053;-70
2022/12/06 07:25:10;;;;;;;5.88;2.30;;;4.30;86.00;;;;;;5109078;27;20048;-69
2022/12/06 07:27:37;;;;;;;5.57;1.40;;;4.20;86.00;;;;;;5120691;27;20047;-69
2022/12/06 07:30:05;;;;;;;5.68;1.35;;;4.20;85.80;;;;;;5100135;28;20676;-69
2022/12/06 07:32:34;;;;;;;4.93;1.50;;;4.20;85.80;;;;;;5098314;27;20175;-69
2022/12/06 07:35:01;;;;;;;4.63;1.38;;;4.10;85.80;;;;;;5091954;27;20052;-69
2022/12/06 07:37:28;;;;;;;6.22;1.73;;;4.10;85.80;;;;;;5103150;27;20139;-69
2022/12/06 07:39:55;;;;;;;6.97;1.90;;;4.00;85.80;;;;;;5100677;27;20055;-70
2022/12/06 07:45:10;;;;;;;4.07;1.25;;;4.00;85.90;;;;;;5094092;27;20044;-69
2022/12/06 07:47:38;;;;;;;4.70;1.65;;;3.90;86.00;;;;;;5097635;27;20051;-69
2022/12/06 07:50:08;;;;;;;6.00;1.52;;;3.90;86.10;;;;;;5112881;27;20507;-69
2022/12/06 07:52:36;;;;;;;6.47;1.70;;;3.90;86.10;;;;;;5099160;27;20052;-69
2022/12/06 07:55:05;;;;;;;4.47;1.48;;;3.90;86.30;;;;;;5109656;27;21941;-69
2022/12/06 07:57:34;;;;;;;4.75;1.33;;;3.80;86.60;;;;;;5106952;27;20168;-69
2022/12/06 08:00:01;;;;;;;6.38;2.28;;;3.80;86.70;;;;;;5091150;28;20611;-69
2022/12/06 08:03:13;;;;;;;4.40;1.60;;;3.80;86.60;;;;;;5065537;28;20263;-69
2022/12/06 08:05:40;;;;;;;5.20;1.90;;;3.80;86.50;;;;;;5063970;28;20259;-69
2022/12/06 08:08:08;;;;;;;5.72;1.63;;;3.80;86.50;;;;;;5066701;28;20268;-69
2022/12/06 08:10:35;;;;;;;8.55;2.30;;;3.80;86.40;;;;;;5049482;28;20049;-69
2022/12/06 08:13:03;;;;;;;6.55;1.77;;;3.80;86.40;;;;;;5065716;28;20523;-69
2022/12/06 08:15:30;;;;;;;5.35;1.60;;;3.80;86.60;;;;;;5049828;28;20077;-69
2022/12/06 08:17:57;;;;;;;4.93;1.53;;;3.70;86.50;;;;;;5049171;28;20270;-69
2022/12/06 08:20:24;;;;;;;4.43;1.60;;;3.70;86.60;;;;;;5058511;28;20279;-69
2022/12/06 08:22:51;;;;;;;5.07;1.90;;;3.70;86.80;;;;;;5070671;28;20689;-69
2022/12/06 08:25:18;;;;;;;5.10;1.63;;;3.70;87.10;;;;;;5075995;28;20055;-69
2022/12/06 08:27:45;;;;;;;5.38;2.08;;;3.70;87.20;;;;;;5064241;28;20211;-68
2022/12/06 08:30:14;;;;;;;5.20;1.93;;;3.70;87.80;;;;;;5047155;28;20049;-69
2022/12/06 08:32:41;;;;;;;5.57;2.00;;;3.70;87.70;;;;;;5047943;28;20862;-69
2022/12/06 08:35:09;;;;;;;6.43;2.03;;;3.70;87.90;;;;;;5078698;28;20171;-69
2022/12/06 08:37:36;;;;;;;5.10;1.90;;;3.70;88.20;;;;;;5086987;28;20058;-69
2022/12/06 08:40:03;;;;;;;5.13;1.55;;;3.80;88.30;;;;;;5085496;28;20052;-69
2022/12/06 08:42:30;;;;;;;4.97;1.60;;;3.80;88.70;;;;;;5090198;28;20044;-69
2022/12/06 08:44:58;;;;;;;5.40;2.00;;;3.80;88.60;;;;;;5090575;27;20344;-69
2022/12/06 08:47:26;;;;;;;5.38;2.08;;;3.90;88.20;;;;;;5107450;27;20056;-69
2022/12/06 08:49:53;;;;;;;5.20;2.10;;;3.90;88.20;;;;;;5088378;27;20826;-69
2022/12/06 08:52:20;;;;;;;4.90;1.95;;;3.90;88.50;;;;;;5088692;27;20069;-69
2022/12/06 08:54:47;;;;;;;3.43;1.00;;;3.90;88.50;;;;;;5111273;27;20072;-69
2022/12/06 08:57:15;;;;;;;4.43;1.58;;;3.90;88.30;;;;;;5104237;27;20346;-69
2022/12/06 08:59:42;;;;;;;3.75;1.30;;;3.90;88.50;;;;;;5106852;27;20142;-69
2022/12/06 09:02:10;;;;;;;5.95;1.45;;;4.00;88.60;;;;;;5107006;27;20072;-69
2022/12/06 09:04:39;;;;;;;3.10;0.82;;;4.00;88.20;;;;;;5073776;27;20152;-69
2022/12/06 09:07:06;;;;;;;5.53;1.50;;;4.10;88.70;;;;;;5097079;27;20049;-69
2022/12/06 09:09:33;;;;;;;4.40;1.38;;;4.10;89.50;;;;;;5089507;28;20285;-69
2022/12/06 09:12:00;;;;;;;4.45;1.17;;;4.10;89.50;;;;;;5090728;28;20532;-69
2022/12/06 09:14:27;;;;;;;5.32;1.30;;;4.20;89.00;;;;;;5087755;28;20060;-70
2022/12/06 09:16:54;;;;;;;4.38;1.38;;;4.20;88.80;;;;;;5090838;28;20077;-69
2022/12/06 09:19:21;;;;;;;3.87;1.30;;;4.30;88.90;;;;;;5107030;28;20833;-69
2022/12/06 09:21:50;;;;;;;5.65;1.30;;;4.30;88.90;;;;;;5107749;28;20764;-70
2022/12/06 09:24:18;;;;;;;4.05;1.50;;;4.30;88.40;;;;;;5088849;28;20044;-70
2022/12/06 09:26:45;;;;;;;5.07;1.17;;;4.40;88.30;;;;;;5090533;28;20048;-70
2022/12/06 09:29:15;;;;;;;4.75;1.27;;;4.40;88.20;;;;;;5110989;27;20049;-69
2022/12/06 09:31:42;;;;;;;4.37;1.27;;;4.40;88.50;;;;;;5086674;27;20048;-69
2022/12/06 09:34:11;;;;;;;4.30;1.30;;;4.40;88.30;;;;;;5095808;28;20885;-70
2022/12/06 09:36:41;;;;;;;5.07;1.27;;;4.40;88.30;;;;;;5090872;28;20145;-69
2022/12/06 09:39:12;;;;;;;4.13;1.20;;;4.40;88.30;;;;;;5093446;28;20040;-69
2022/12/06 09:41:57;;;;;;;2.30;0.50;;;4.50;88.50;;;;;;5093304;27;20140;-69
2022/12/06 09:44:42;;;;;;;4.17;1.17;;;4.50;88.80;;;;;;5103207;27;20672;-69
2022/12/06 09:47:22;;;;;;;5.82;1.67;;;4.50;89.30;;;;;;5089162;28;20260;-70
2022/12/06 09:50:01;;;;;;;4.70;1.42;;;4.50;89.20;;;;;;5095889;28;20060;-69
2022/12/06 09:52:55;;;;;;;4.53;1.40;;;4.50;88.90;;;;;;5090927;28;20107;-69
2022/12/06 09:55:34;;;;;;;4.75;1.70;;;4.60;88.60;;;;;;5090534;28;20136;-69
2022/12/06 09:58:12;;;;;;;5.10;1.40;;;4.70;88.50;;;;;;5109018;28;20135;-69
2022/12/06 10:00:46;;;;;;;4.22;0.90;;;4.70;88.60;;;;;;5091147;28;20334;-69
2022/12/06 10:03:43;;;;;;;5.60;1.15;;;4.70;88.40;;;;;;5094449;28;20131;-69
2022/12/06 10:06:13;;;;;;;4.40;1.20;;;4.70;88.20;;;;;;5093767;28;20951;-69
2022/12/06 10:08:54;;;;;;;4.80;1.10;;;4.70;88.20;;;;;;5075898;28;20603;-69
2022/12/06 10:11:36;;;;;;;4.37;1.40;;;4.70;88.20;;;;;;5097504;27;20426;-69
2022/12/06 10:14:16;;;;;;;5.97;1.92;;;4.80;88.00;;;;;;5114238;27;20250;-69
2022/12/06 10:16:55;;;;;;;5.38;1.70;;;4.80;88.10;;;;;;5102207;27;20101;-68
2022/12/06 10:19:33;;;;;;;3.40;1.40;;;4.80;88.10;;;;;;5102895;27;20045;-69
2022/12/06 10:22:09;;;;;;;6.22;1.95;;;4.80;88.00;;;;;;5111349;27;20117;-69
2022/12/06 10:24:48;;;;;;;6.87;1.37;;;4.90;87.90;;;;;;5095140;27;20127;-70
2022/12/06 10:27:23;;;;;;;4.75;1.73;;;4.90;87.80;;;;;;5111498;27;20346;-69
2022/12/06 10:29:55;;;;;;;5.05;1.60;;;4.90;87.60;;;;;;5112302;28;20051;-69
2022/12/06 10:32:49;;;;;;;4.68;1.23;;;4.90;87.60;;;;;;5093777;28;20052;-69
2022/12/06 10:35:21;;;;;;;4.80;1.70;;;4.90;87.60;;;;;;5093522;28;20043;-70
2022/12/06 10:38:01;;;;;;;5.27;1.53;;;4.90;87.50;;;;;;5093042;28;20044;-69
2022/12/06 10:40:31;;;;;;;5.25;1.33;;;4.90;87.50;;;;;;5091793;28;20964;-69
2022/12/06 10:43:23;;;;;;;7.30;1.83;;;4.90;87.50;;;;;;5074931;28;20048;-69
2022/12/06 10:48:57;;;;;;;5.90;1.58;;;5.00;87.50;;;;;;5075180;28;20113;-69
2022/12/06 10:51:31;;;;;;;6.23;1.50;;;5.00;87.60;;;;;;5094815;28;20079;-70
2022/12/06 10:54:05;;;;;;;4.15;1.00;;;5.00;87.70;;;;;;5092339;27;20359;-70
2022/12/06 10:56:36;;;;;;;4.82;2.03;;;5.00;87.80;;;;;;5111263;27;20051;-70
2022/12/06 10:59:18;;;;;;;3.13;0.80;;;5.00;87.90;;;;;;5092423;27;20055;-69
2022/12/06 11:01:46;;;;;;;3.97;1.13;;;5.10;88.00;;;;;;5111221;27;20109;-70
2022/12/06 11:04:20;;;;;;;3.87;1.53;;;5.10;88.00;;;;;;5095298;27;21035;-69
2022/12/06 11:06:51;;;;;;;3.72;1.00;;;5.20;87.80;;;;;;5087396;27;20248;-69
2022/12/06 11:09:25;;;;;;;5.10;1.25;;;5.30;87.60;;;;;;5090162;27;20143;-70
2022/12/06 11:11:52;;;;;;;1.90;0.50;;;5.30;87.60;;;;;;5089565;27;20039;-69
2022/12/06 11:14:26;;;;;;;4.22;0.70;;;5.30;87.50;;;;;;5097262;27;20573;-69
2022/12/06 11:16:58;;;;;;;3.97;0.60;;;5.40;87.50;;;;;;5090628;27;20055;-69
2022/12/06 11:19:31;;;;;;;4.00;1.02;;;5.40;87.30;;;;;;5096447;27;20252;-69
2022/12/06 11:22:08;;;;;;;4.88;1.20;;;5.50;87.40;;;;;;5092105;27;20133;-70
2022/12/06 11:24:39;;;;;;;6.75;1.48;;;5.50;87.30;;;;;;5090828;27;20109;-70
2022/12/06 11:27:14;;;;;;;3.53;0.77;;;5.50;87.10;;;;;;5118065;27;20079;-70
2022/12/06 11:29:43;;;;;;;3.97;1.00;;;5.50;87.10;;;;;;5070752;28;20060;-70
2022/12/06 11:32:13;;;;;;;4.78;1.08;;;5.60;86.90;;;;;;5053909;28;20277;-70
2022/12/06 11:34:44;;;;;;;3.65;0.90;;;5.60;86.60;;;;;;5074268;28;20044;-70
2022/12/06 11:37:16;;;;;;;6.00;1.45;;;5.60;86.60;;;;;;5089457;28;20047;-69
2022/12/06 11:39:43;;;;;;;4.03;1.00;;;5.60;86.70;;;;;;5091447;28;20710;-70
2022/12/06 11:42:15;;;;;;;4.97;1.40;;;5.70;86.70;;;;;;5091158;28;20045;-69
2022/12/06 11:44:47;;;;;;;5.38;0.45;;;5.70;86.80;;;;;;5074743;28;20275;-69
2022/12/06 11:47:17;;;;;;;3.40;0.77;;;5.70;86.50;;;;;;5110168;28;20059;-69
2022/12/06 11:49:46;;;;;;;4.10;0.93;;;5.80;86.10;;;;;;5091804;28;20062;-69
2022/12/06 11:52:18;;;;;;;5.00;1.00;;;5.80;85.80;;;;;;5091311;28;20058;-69
2022/12/06 11:54:51;;;;;;;5.30;1.30;;;5.80;85.70;;;;;;5087799;28;20506;-69
2022/12/06 11:57:21;;;;;;;5.38;1.38;;;5.90;85.70;;;;;;5090155;28;20255;-70
2022/12/06 12:00:15;;;;;;;2.35;0.70;;;5.90;85.40;;;;;;5085969;28;20502;-69
2022/12/06 12:02:44;;;;;;;3.15;0.88;;;5.90;85.00;;;;;;5092274;28;20051;-69
2022/12/06 12:05:18;;;;;;;3.80;1.00;;;5.90;84.70;;;;;;5092145;28;20048;-69
2022/12/06 12:07:49;;;;;;;2.03;0.40;;;6.00;84.60;;;;;;5092376;28;20048;-69
2022/12/06 12:10:31;;;;;;;3.75;1.00;;;6.00;84.40;;;;;;5091794;28;20266;-69
2022/12/06 12:16:13;;;;;;;4.03;0.80;;;6.00;83.70;;;;;;5110112;28;20055;-69
2022/12/06 12:18:48;;;;;;;5.57;0.70;;;6.00;83.50;;;;;;5070999;28;20993;-69
2022/12/06 12:21:15;;;;;;;5.03;0.90;;;6.10;83.50;;;;;;5098998;28;21033;-70
2022/12/06 12:23:45;;;;;;;3.17;0.60;;;6.10;83.20;;;;;;5107717;28;20247;-70
2022/12/06 12:26:14;;;;;;;3.00;0.60;;;6.10;83.30;;;;;;5108520;28;21084;-70
2022/12/06 12:28:43;;;;;;;4.68;0.80;;;6.10;83.00;;;;;;5107235;28;20146;-70
2022/12/06 12:31:17;;;;;;;2.13;0.55;;;6.10;82.80;;;;;;5103567;27;20052;-70
2022/12/06 12:33:45;;;;;;;4.50;0.90;;;6.10;82.90;;;;;;5106498;27;20074;-70
2022/12/06 12:36:20;;;;;;;4.35;0.77;;;6.20;82.70;;;;;;5085088;27;20268;-70
2022/12/06 12:38:54;;;;;;;2.15;0.40;;;6.20;82.70;;;;;;5108038;27;20055;-70
2022/12/06 12:44:48;;;;;;;3.70;0.60;;;6.20;82.80;;;;;;5069274;28;20092;-70
2022/12/06 12:47:19;;;;;;;4.17;0.87;;;6.20;82.80;;;;;;5061298;28;20045;-70
2022/12/06 12:50:00;;;;;;;4.15;0.90;;;6.30;82.90;;;;;;5058118;28;20715;-70
2022/12/06 12:52:29;;;;;;;3.92;0.68;;;6.30;82.80;;;;;;5080068;28;20079;-70
2022/12/06 12:55:01;;;;;;;4.10;0.90;;;6.30;82.90;;;;;;5056859;28;20050;-70
2022/12/06 12:57:28;;;;;;;3.38;0.65;;;6.30;82.70;;;;;;5077028;28;20127;-69
2022/12/06 12:59:56;;;;;;;4.93;0.70;;;6.30;82.80;;;;;;5058176;28;20049;-70
2022/12/06 13:02:29;;;;;;;3.30;0.95;;;6.30;82.40;;;;;;5077425;28;20271;-70
2022/12/06 13:05:01;;;;;;;3.40;0.68;;;6.30;82.50;;;;;;5083067;28;20052;-70
2022/12/06 13:07:32;;;;;;;2.35;0.38;;;6.30;82.40;;;;;;5065803;28;20552;-70
2022/12/06 13:10:03;;;;;;;4.57;0.88;;;6.40;82.50;;;;;;5050801;28;20439;-70
2022/12/06 13:12:35;;;;;;;2.43;0.60;;;6.40;82.70;;;;;;5076738;28;20645;-70
2022/12/06 13:15:07;;;;;;;2.92;0.88;;;6.40;82.70;;;;;;5051084;28;20291;-70
2022/12/06 13:17:38;;;;;;;5.72;0.60;;;6.40;82.80;;;;;;5060229;28;20153;-70
2022/12/06 13:20:20;;;;;;;3.38;0.80;;;6.40;82.90;;;;;;5067224;28;20124;-70
2022/12/06 13:22:51;;;;;;;4.22;0.50;;;6.40;83.10;;;;;;5069301;28;20057;-70
2022/12/06 13:25:18;;;;;;;2.70;0.60;;;6.50;82.70;;;;;;5052971;28;20056;-70
2022/12/06 13:27:50;;;;;;;2.83;0.60;;;6.50;82.70;;;;;;5067470;28;20276;-69
2022/12/06 13:30:20;;;;;;;2.90;0.60;;;6.50;82.80;;;;;;5068782;28;20064;-70
2022/12/06 13:32:52;;;;;;;6.35;1.38;;;6.50;83.00;;;;;;5050760;28;20049;-70
2022/12/06 13:35:27;;;;;;;4.15;0.85;;;6.50;83.00;;;;;;5062107;28;20049;-70
2022/12/06 13:37:56;;;;;;;3.80;0.80;;;6.50;83.00;;;;;;5079821;28;20056;-70
2022/12/06 13:40:47;;;;;;;3.55;0.77;;;6.50;83.20;;;;;;5061173;28;21117;-70
2022/12/06 13:43:50;;;;;;;4.35;0.95;;;6.50;83.20;;;;;;5076262;28;20072;-70